Yale, Virginia
Current Conditions -  °F | °C
As of 11:55 PM on Friday 19 Dec 2014 (Local Time) from KEMV Reporting Station
Clear Clear  
Wind Chill:   Ceiling: Unl
Heat Index:   Visibility: 10mi
Dew Point: -3°   Wind: 0mph
Humidity: 80%   Direction: NA
Pressure: 30.26"   Gusts: NA
Location:  36.85°N, 77.29°W
Report Text: KEMV 200455Z AUTO 00000KT 10SM CLR 00/M03 A3026 RMK AO2
Loading
Personal Weather Stations






























Interactive Weather Map New forecast layout! Learn more

10-Day Weather Forecast

Advertisements
Track Severe Weather on mobile